createdAt,value
2017-12-16T00:02:04.497Z,99910.52
2017-12-16T00:04:32.241Z,99909.95
2017-12-16T00:06:59.928Z,99913.09
2017-12-16T00:09:27.591Z,99911.14
2017-12-16T00:11:55.205Z,99918.55
2017-12-16T00:14:22.829Z,99922.09
2017-12-16T00:16:50.537Z,99921.55
2017-12-16T00:19:18.255Z,99918.38
2017-12-16T00:21:45.924Z,99921.52
2017-12-16T00:24:13.552Z,99919.73
2017-12-16T00:26:41.241Z,99921.38
2017-12-16T00:29:08.923Z,99920.42
2017-12-16T00:31:36.706Z,99923.72
2017-12-16T00:34:04.330Z,99922.64
2017-12-16T00:36:32.146Z,99924.30
2017-12-16T00:38:59.764Z,99927.57
2017-12-16T00:41:27.491Z,99928.95
2017-12-16T00:43:55.122Z,99926.61
2017-12-16T00:46:22.852Z,99924.00
2017-12-16T00:48:50.512Z,99925.37
2017-12-16T00:51:18.273Z,99929.91
2017-12-16T00:53:45.901Z,99928.64
2017-12-16T00:56:13.704Z,99930.30
2017-12-16T00:58:41.330Z,99924.80
2017-12-16T01:01:09.106Z,99924.09
2017-12-16T01:03:36.783Z,99925.46
2017-12-16T01:06:04.476Z,99925.87
2017-12-16T01:08:32.101Z,99928.19
2017-12-16T01:10:59.830Z,99935.89
2017-12-16T01:13:27.550Z,99929.84
2017-12-16T01:15:55.224Z,99938.94
2017-12-16T01:18:22.878Z,99939.32
2017-12-16T01:20:50.570Z,99944.44
2017-12-16T01:23:18.212Z,99951.15
2017-12-16T01:25:45.893Z,99940.56
2017-12-16T01:28:13.626Z,99946.06
2017-12-16T01:30:41.305Z,99945.38
2017-12-16T01:33:08.946Z,99946.31
2017-12-16T01:35:48.493Z,99953.44
2017-12-16T01:38:27.884Z,99952.45
2017-12-16T01:40:55.648Z,99957.00
2017-12-16T01:43:23.347Z,99966.20
2017-12-16T01:45:51.089Z,99966.92
2017-12-16T01:48:18.764Z,99972.84
2017-12-16T01:50:46.448Z,99969.94
2017-12-16T01:53:14.072Z,99963.89
2017-12-16T01:55:41.764Z,99963.34
2017-12-16T01:58:09.397Z,99967.88
2017-12-16T02:00:37.185Z,99964.85
2017-12-16T02:03:04.800Z,99973.52
2017-12-16T02:05:32.513Z,99963.89
2017-12-16T02:08:00.161Z,99972.97
2017-12-16T02:10:27.869Z,99972.67
2017-12-16T02:12:55.557Z,99967.56
2017-12-16T02:15:23.244Z,99969.89
2017-12-16T02:17:51.020Z,99966.32
2017-12-16T02:20:18.724Z,99972.09
2017-12-16T02:22:46.395Z,99963.16
2017-12-16T02:25:14.014Z,99971.11
2017-12-16T02:27:41.752Z,99974.52
2017-12-16T02:30:09.379Z,99971.50
2017-12-16T02:32:37.060Z,99967.36
2017-12-16T02:35:04.757Z,99977.83
2017-12-16T02:37:32.494Z,99975.35
2017-12-16T02:40:00.211Z,99968.91
2017-12-16T02:42:27.948Z,99973.42
2017-12-16T02:44:55.646Z,99969.28
2017-12-16T02:47:23.384Z,99971.07
2017-12-16T02:49:51.088Z,99968.56
2017-12-16T02:52:18.816Z,99969.70
2017-12-16T02:54:46.539Z,99969.58
2017-12-16T02:57:14.229Z,99971.75
2017-12-16T02:59:41.934Z,99959.98
2017-12-16T03:02:09.634Z,99969.33
2017-12-16T03:04:37.341Z,99969.22
2017-12-16T03:07:05.024Z,99975.95
2017-12-16T03:09:32.703Z,99975.28
2017-12-16T03:12:00.463Z,99978.72
2017-12-16T03:14:28.090Z,99977.51
2017-12-16T03:16:55.841Z,99980.15
2017-12-16T03:19:23.531Z,99984.39
2017-12-16T03:21:51.242Z,99977.78
2017-12-16T03:24:18.942Z,99985.59
2017-12-16T03:26:46.618Z,99987.53
2017-12-16T03:29:14.296Z,99991.22
2017-12-16T03:31:42.053Z,99989.70
2017-12-16T03:34:09.674Z,99987.34
2017-12-16T03:36:37.418Z,99989.95
2017-12-16T03:39:05.103Z,99989.67
2017-12-16T03:41:32.750Z,99991.92
2017-12-16T03:44:00.484Z,99992.88
2017-12-16T03:46:28.115Z,99995.22
2017-12-16T03:48:55.908Z,99987.38
2017-12-16T03:51:23.604Z,99991.23
2017-12-16T03:53:51.347Z,99994.95
2017-12-16T03:56:18.979Z,99996.19
2017-12-16T03:58:46.761Z,99988.72
2017-12-16T04:01:14.474Z,99998.20
2017-12-16T04:03:42.214Z,100004.38
2017-12-16T04:06:09.920Z,100005.47
2017-12-16T04:08:37.649Z,100003.55
2017-12-16T04:11:05.288Z,99999.56
2017-12-16T04:13:32.969Z,100009.05
2017-12-16T04:16:00.669Z,100010.95
2017-12-16T04:18:28.364Z,100010.38
2017-12-16T04:20:56.072Z,100009.39
2017-12-16T04:23:23.800Z,100004.08
2017-12-16T04:25:51.524Z,100013.84
2017-12-16T04:28:19.205Z,100012.35
2017-12-16T04:30:46.901Z,100010.28
2017-12-16T04:33:14.590Z,100015.12
2017-12-16T04:35:42.292Z,100013.45
2017-12-16T04:38:10.039Z,100009.19
2017-12-16T04:40:37.729Z,100010.04
2017-12-16T04:43:05.412Z,100012.38
2017-12-16T04:45:33.084Z,100011.09
2017-12-16T04:48:00.823Z,100015.77
2017-12-16T04:50:28.465Z,100017.72
2017-12-16T04:52:56.205Z,100017.12
2017-12-16T04:55:23.905Z,100015.31
2017-12-16T04:57:51.744Z,100013.66
2017-12-16T05:00:19.443Z,100016.41
2017-12-16T05:02:47.140Z,100022.47
2017-12-16T05:05:14.789Z,100020.95
2017-12-16T05:07:42.490Z,100020.95
2017-12-16T05:10:10.188Z,100030.40
2017-12-16T05:12:37.916Z,100028.58
2017-12-16T05:15:05.603Z,100023.50
2017-12-16T05:17:33.377Z,100033.15
2017-12-16T05:20:01.092Z,100032.91
2017-12-16T05:22:28.805Z,100025.50
2017-12-16T05:24:56.546Z,100033.97
2017-12-16T05:27:24.229Z,100035.22
2017-12-16T05:29:51.994Z,100038.10
2017-12-16T05:32:19.624Z,100037.69
2017-12-16T05:34:47.364Z,100038.52
2017-12-16T05:37:14.981Z,100040.72
2017-12-16T05:39:42.674Z,100041.38
2017-12-16T05:42:10.313Z,100039.04
2017-12-16T05:44:38.048Z,100040.59
2017-12-16T05:47:05.773Z,100040.42
2017-12-16T05:49:33.541Z,100044.71
2017-12-16T05:52:01.246Z,100044.45
2017-12-16T05:54:28.934Z,100051.63
2017-12-16T05:56:56.681Z,100052.02
2017-12-16T05:59:24.434Z,100055.34
2017-12-16T06:01:52.056Z,100054.63
2017-12-16T06:04:19.829Z,100057.37
2017-12-16T06:06:47.540Z,100063.19
2017-12-16T06:09:15.222Z,100073.06
2017-12-16T06:11:42.862Z,100077.77
2017-12-16T06:14:10.619Z,100076.53
2017-12-16T06:16:38.254Z,100071.44
2017-12-16T06:19:05.999Z,100077.20
2017-12-16T06:21:33.693Z,100076.24
2017-12-16T06:24:01.376Z,100069.89
2017-12-16T06:26:29.029Z,100071.14
2017-12-16T06:28:56.785Z,100073.04
2017-12-16T06:31:24.514Z,100079.92
2017-12-16T06:33:52.212Z,100072.08
2017-12-16T06:36:19.836Z,100069.88
2017-12-16T06:38:47.535Z,100071.12
2017-12-16T06:41:15.253Z,100077.05
2017-12-16T06:43:42.997Z,100086.13
2017-12-16T06:46:10.696Z,100086.81
2017-12-16T06:48:38.445Z,100086.41
2017-12-16T06:51:06.089Z,100097.98
2017-12-16T06:53:33.828Z,100108.16
2017-12-16T06:56:01.469Z,100104.27
2017-12-16T06:58:29.177Z,100099.76
2017-12-16T07:00:56.881Z,100103.47
2017-12-16T07:03:24.608Z,100109.23
2017-12-16T07:05:52.288Z,100108.70
2017-12-16T07:08:19.971Z,100106.08
2017-12-16T07:10:47.720Z,100110.20
2017-12-16T07:13:15.434Z,100122.75
2017-12-16T07:15:43.121Z,100122.17
2017-12-16T07:18:10.819Z,100119.28
2017-12-16T07:20:38.573Z,100126.03
2017-12-16T07:23:06.264Z,100130.57
2017-12-16T07:25:34.002Z,100124.91
2017-12-16T07:28:01.647Z,100135.89
2017-12-16T07:30:29.355Z,100142.10
2017-12-16T07:32:57.060Z,100145.27
2017-12-16T07:35:24.766Z,100143.20
2017-12-16T07:37:52.392Z,100147.47
2017-12-16T07:40:20.145Z,100150.47
2017-12-16T07:42:47.842Z,100148.14
2017-12-16T07:45:15.580Z,100151.00
2017-12-16T07:47:43.199Z,100149.22
2017-12-16T07:50:11.043Z,100152.25
2017-12-16T07:52:38.728Z,100159.41
2017-12-16T07:55:06.395Z,100162.82
2017-12-16T07:57:34.021Z,100164.20
2017-12-16T08:00:01.701Z,100163.77
2017-12-16T08:02:29.364Z,100171.18
2017-12-16T08:04:57.124Z,100180.81
2017-12-16T08:07:24.841Z,100175.44
2017-12-16T08:09:52.542Z,100176.37
2017-12-16T08:12:20.177Z,100177.02
2017-12-16T08:14:47.860Z,100181.69
2017-12-16T08:17:15.558Z,100189.80
2017-12-16T08:19:43.307Z,100182.33
2017-12-16T08:22:11.013Z,100181.73
2017-12-16T08:24:38.756Z,100191.53
2017-12-16T08:27:06.440Z,100199.94
2017-12-16T08:29:34.178Z,100196.52
2017-12-16T08:32:01.882Z,100203.84
2017-12-16T08:34:29.630Z,100202.17
2017-12-16T08:36:57.255Z,100203.55
2017-12-16T08:39:25.013Z,100203.14
2017-12-16T08:41:52.766Z,100204.65
2017-12-16T08:44:20.456Z,100204.09
2017-12-16T08:46:48.121Z,100209.02
2017-12-16T08:49:15.839Z,100214.11
2017-12-16T08:51:43.551Z,100205.12
2017-12-16T08:54:11.185Z,100210.88
2017-12-16T08:56:38.993Z,100210.14
2017-12-16T08:59:06.691Z,100215.61
2017-12-16T09:01:34.451Z,100217.23
2017-12-16T09:04:02.133Z,100226.40
2017-12-16T09:06:29.867Z,100234.11
2017-12-16T09:08:57.555Z,100239.30
2017-12-16T09:11:25.248Z,100237.08
2017-12-16T09:13:52.938Z,100245.99
2017-12-16T09:16:20.681Z,100249.83
2017-12-16T09:18:48.374Z,100247.03
2017-12-16T09:21:16.090Z,100249.05
2017-12-16T09:23:43.731Z,100246.29
2017-12-16T09:26:11.407Z,100250.73
2017-12-16T09:28:39.155Z,100258.86
2017-12-16T09:31:06.884Z,100257.16
2017-12-16T09:33:34.587Z,100268.41
2017-12-16T09:36:02.344Z,100269.61
2017-12-16T09:38:30.041Z,100270.19
2017-12-16T09:40:57.777Z,100265.02
2017-12-16T09:43:25.474Z,100269.38
2017-12-16T09:45:53.154Z,100274.59
2017-12-16T09:48:20.808Z,100276.52
2017-12-16T09:50:48.613Z,100274.78
2017-12-16T09:53:16.324Z,100285.83
2017-12-16T09:55:44.011Z,100280.77
2017-12-16T09:58:11.752Z,100278.93
2017-12-16T10:00:39.578Z,100280.20
2017-12-16T10:03:07.315Z,100275.86
2017-12-16T10:05:35.068Z,100285.66
2017-12-16T10:08:03.051Z,100280.15
2017-12-16T10:10:30.749Z,100279.05
2017-12-16T10:12:58.383Z,100279.72
2017-12-16T10:15:26.128Z,100281.20
2017-12-16T10:17:53.832Z,100275.36
2017-12-16T10:20:21.584Z,100276.75
2017-12-16T10:22:49.311Z,100277.88
2017-12-16T10:25:16.985Z,100285.15
2017-12-16T10:27:44.621Z,100285.15
2017-12-16T10:30:12.250Z,100290.54
2017-12-16T10:32:39.981Z,100295.91
2017-12-16T10:35:07.606Z,100297.00
2017-12-16T10:37:35.280Z,100290.87
2017-12-16T10:40:02.925Z,100301.87
2017-12-16T10:42:30.596Z,100296.03
2017-12-16T10:44:58.223Z,100295.78
2017-12-16T10:47:25.907Z,100294.39
2017-12-16T10:49:53.543Z,100290.58
2017-12-16T10:52:21.219Z,100297.05
2017-12-16T10:54:48.841Z,100298.54
2017-12-16T10:57:16.526Z,100298.74
2017-12-16T10:59:44.166Z,100285.05
2017-12-16T11:02:11.861Z,100303.52
2017-12-16T11:04:39.491Z,100303.92
2017-12-16T11:07:07.161Z,100302.63
2017-12-16T11:09:34.807Z,100300.81
2017-12-16T11:12:02.491Z,100300.25
2017-12-16T11:14:30.111Z,100307.98
2017-12-16T11:16:57.775Z,100303.70
2017-12-16T11:19:25.392Z,100301.69
2017-12-16T11:21:53.067Z,100308.02
2017-12-16T11:24:20.688Z,100306.70
2017-12-16T11:26:48.372Z,100314.13
2017-12-16T11:29:16.006Z,100317.80
2017-12-16T11:31:43.717Z,100319.25
2017-12-16T11:34:11.343Z,100323.81
2017-12-16T11:36:39.021Z,100324.84
2017-12-16T11:39:06.658Z,100328.57
2017-12-16T11:41:34.372Z,100330.62
2017-12-16T11:44:02.003Z,100332.31
2017-12-16T11:46:29.668Z,100330.22
2017-12-16T11:48:57.312Z,100331.53
2017-12-16T11:51:24.989Z,100326.63
2017-12-16T11:53:52.609Z,100325.83
2017-12-16T11:56:20.286Z,100340.79
2017-12-16T11:58:47.913Z,100342.98
2017-12-16T12:01:15.588Z,100344.37
2017-12-16T12:03:43.274Z,100340.38
2017-12-16T12:06:10.965Z,100343.77
2017-12-16T12:08:38.615Z,100344.66
2017-12-16T12:11:06.304Z,100348.67
2017-12-16T12:13:33.935Z,100346.64
2017-12-16T12:16:01.626Z,100356.20
2017-12-16T12:18:29.263Z,100358.25
2017-12-16T12:20:56.906Z,100362.25
2017-12-16T12:23:24.565Z,100363.10
2017-12-16T12:25:52.216Z,100367.33
2017-12-16T12:28:19.893Z,100369.95
2017-12-16T12:30:47.534Z,100377.26
2017-12-16T12:33:15.224Z,100376.34
2017-12-16T12:35:43.687Z,100375.86
2017-12-16T12:38:11.380Z,100373.67
2017-12-16T12:40:39.014Z,100374.66
2017-12-16T12:43:06.689Z,100375.11
2017-12-16T12:45:34.323Z,100378.59
2017-12-16T12:48:02.001Z,100378.22
2017-12-16T12:50:29.630Z,100378.92
2017-12-16T12:52:57.288Z,100382.00
2017-12-16T12:55:24.919Z,100385.85
2017-12-16T12:57:52.609Z,100393.44
2017-12-16T13:00:20.247Z,100384.11
2017-12-16T13:02:47.910Z,100380.59
2017-12-16T13:05:15.530Z,100377.23
2017-12-16T13:07:43.201Z,100373.42
2017-12-16T13:10:10.821Z,100382.24
2017-12-16T13:12:38.523Z,100382.15
2017-12-16T13:15:06.168Z,100382.76
2017-12-16T13:17:33.838Z,100378.23
2017-12-16T13:20:01.491Z,100387.61
2017-12-16T13:22:29.165Z,100389.93
2017-12-16T13:24:56.790Z,100394.73
2017-12-16T13:27:24.492Z,100394.14
2017-12-16T13:29:52.128Z,100404.06
2017-12-16T13:32:19.801Z,100403.55
2017-12-16T13:34:47.433Z,100408.00
2017-12-16T13:37:15.117Z,100414.90
2017-12-16T13:39:42.789Z,100414.76
2017-12-16T13:42:10.468Z,100420.02
2017-12-16T13:44:38.079Z,100426.46
2017-12-16T13:47:05.775Z,100429.20
2017-12-16T13:49:33.408Z,100435.23
2017-12-16T13:52:01.071Z,100435.34
2017-12-16T13:54:28.696Z,100441.52
2017-12-16T13:56:56.388Z,100440.64
2017-12-16T13:59:24.039Z,100442.37
2017-12-16T14:01:51.727Z,100441.77
2017-12-16T14:04:19.350Z,100437.59
2017-12-16T14:06:47.027Z,100443.19
2017-12-16T14:09:14.651Z,100440.20
2017-12-16T14:11:42.275Z,100447.35
2017-12-16T14:14:09.933Z,100445.17
2017-12-16T14:16:37.578Z,100442.67
2017-12-16T14:19:05.244Z,100452.44
2017-12-16T14:21:32.888Z,100446.36
2017-12-16T14:24:00.569Z,100461.51
2017-12-16T14:26:28.187Z,100453.66
2017-12-16T14:28:55.871Z,100464.02
2017-12-16T14:31:23.500Z,100468.44
2017-12-16T14:33:51.181Z,100473.86
2017-12-16T14:36:19.593Z,100474.29
2017-12-16T14:38:47.264Z,100475.56
2017-12-16T14:41:14.909Z,100477.34
2017-12-16T14:43:42.598Z,100478.47
2017-12-16T14:46:10.228Z,100477.55
2017-12-16T14:48:37.906Z,100488.28
2017-12-16T14:51:05.542Z,100488.86
2017-12-16T14:53:33.207Z,100503.61
2017-12-16T14:56:00.837Z,100498.43
2017-12-16T14:58:28.578Z,100504.63
2017-12-16T15:00:56.243Z,100510.27
2017-12-16T15:03:23.912Z,100511.66
2017-12-16T15:05:51.561Z,100516.52
2017-12-16T15:08:19.270Z,100512.95
2017-12-16T15:10:46.944Z,100510.37
2017-12-16T15:13:14.624Z,100513.38
2017-12-16T15:15:42.293Z,100517.13
2017-12-16T15:18:09.963Z,100527.56
2017-12-16T15:20:37.652Z,100535.56
2017-12-16T15:23:05.369Z,100535.27
2017-12-16T15:25:32.997Z,100534.31
2017-12-16T15:28:00.685Z,100538.02
2017-12-16T15:30:28.313Z,100543.95
2017-12-16T15:32:55.989Z,100552.75
2017-12-16T15:35:23.617Z,100555.12
2017-12-16T15:37:51.340Z,100556.06
2017-12-16T15:40:19.001Z,100557.98
2017-12-16T15:42:46.756Z,100556.59
2017-12-16T15:45:14.419Z,100560.03
2017-12-16T15:47:42.089Z,100561.52
2017-12-16T15:50:09.738Z,100562.89
2017-12-16T15:52:37.477Z,100565.64
2017-12-16T15:55:05.124Z,100568.95
2017-12-16T15:57:32.833Z,100559.73
2017-12-16T16:00:00.501Z,100570.84
2017-12-16T16:02:28.233Z,100570.55
2017-12-16T16:04:55.910Z,100571.80
2017-12-16T16:07:23.584Z,100579.61
2017-12-16T16:09:51.276Z,100582.91
2017-12-16T16:12:18.921Z,100583.05
2017-12-16T16:14:46.706Z,100587.85
2017-12-16T16:17:14.360Z,100593.23
2017-12-16T16:19:42.049Z,100592.85
2017-12-16T16:22:09.700Z,100596.04
2017-12-16T16:24:37.424Z,100596.44
2017-12-16T16:27:05.124Z,100603.59
2017-12-16T16:29:32.805Z,100604.95
2017-12-16T16:32:00.489Z,100613.47
2017-12-16T16:34:28.174Z,100621.16
2017-12-16T16:36:55.811Z,100627.05
2017-12-16T16:39:23.499Z,100622.91
2017-12-16T16:41:51.178Z,100624.08
2017-12-16T16:44:18.887Z,100628.75
2017-12-16T16:46:46.519Z,100632.16
2017-12-16T16:49:14.188Z,100635.45
2017-12-16T16:51:41.871Z,100635.66
2017-12-16T16:54:09.570Z,100638.16
2017-12-16T16:56:37.287Z,100638.69
2017-12-16T16:59:04.984Z,100640.47
2017-12-16T17:01:32.641Z,100643.46
2017-12-16T17:04:00.344Z,100649.23
2017-12-16T17:06:28.026Z,100646.16
2017-12-16T17:08:55.706Z,100651.91
2017-12-16T17:11:23.356Z,100656.30
2017-12-16T17:13:51.032Z,100656.30
2017-12-16T17:16:18.665Z,100657.52
2017-12-16T17:18:46.342Z,100662.90
2017-12-16T17:21:14.013Z,100662.94
2017-12-16T17:23:41.717Z,100667.52
2017-12-16T17:26:09.391Z,100665.45
2017-12-16T17:28:37.118Z,100668.77
2017-12-16T17:31:04.756Z,100669.14
2017-12-16T17:33:32.494Z,100665.64
2017-12-16T17:36:00.184Z,100671.37
2017-12-16T17:38:27.907Z,100664.20
2017-12-16T17:40:55.634Z,100670.47
2017-12-16T17:43:23.434Z,100674.19
2017-12-16T17:45:51.218Z,100676.27
2017-12-16T17:48:19.003Z,100687.08
2017-12-16T17:50:46.705Z,100681.31
2017-12-16T17:53:14.446Z,100687.61
2017-12-16T17:55:42.152Z,100687.86
2017-12-16T17:58:09.796Z,100690.20
2017-12-16T18:00:37.592Z,100691.86
2017-12-16T18:03:05.327Z,100692.81
2017-12-16T18:05:33.140Z,100699.41
2017-12-16T18:08:00.836Z,100697.20
2017-12-16T18:10:28.647Z,100706.79
2017-12-16T18:12:56.364Z,100705.98
2017-12-16T18:15:24.164Z,100703.77
2017-12-16T18:17:51.920Z,100705.52
2017-12-16T18:20:19.730Z,100709.89
2017-12-16T18:22:47.445Z,100710.72
2017-12-16T18:25:15.207Z,100716.21
2017-12-16T18:27:42.970Z,100722.92
2017-12-16T18:30:10.711Z,100726.55
2017-12-16T18:32:38.410Z,100731.09
2017-12-16T18:35:06.153Z,100735.09
2017-12-16T18:37:33.863Z,100732.95
2017-12-16T18:40:01.609Z,100729.50
2017-12-16T18:42:29.388Z,100735.34
2017-12-16T18:44:57.112Z,100736.56
2017-12-16T18:47:24.857Z,100743.50
2017-12-16T18:49:52.639Z,100736.96
2017-12-16T18:52:20.337Z,100740.84
2017-12-16T18:54:48.077Z,100733.59
2017-12-16T18:57:15.724Z,100732.27
2017-12-16T18:59:43.449Z,100737.81
2017-12-16T19:02:11.136Z,100744.95
2017-12-16T19:04:38.863Z,100746.63
2017-12-16T19:07:06.618Z,100742.53
2017-12-16T19:09:34.429Z,100743.48
2017-12-16T19:12:02.089Z,100746.77
2017-12-16T19:14:29.768Z,100752.69
2017-12-16T19:16:57.514Z,100756.41
2017-12-16T19:19:25.366Z,100757.50
2017-12-16T19:21:53.136Z,100756.02
2017-12-16T19:24:20.878Z,100753.41
2017-12-16T19:26:48.623Z,100754.38
2017-12-16T19:29:16.405Z,100756.46
2017-12-16T19:31:44.147Z,100757.92
2017-12-16T19:34:11.947Z,100756.13
2017-12-16T19:36:39.718Z,100765.31
2017-12-16T19:39:07.504Z,100769.73
2017-12-16T19:41:35.249Z,100775.26
2017-12-16T19:44:03.038Z,100779.08
2017-12-16T19:46:30.817Z,100771.39
2017-12-16T19:48:58.567Z,100777.27
2017-12-16T19:51:26.371Z,100779.66
2017-12-16T19:53:54.120Z,100784.54
2017-12-16T19:56:21.920Z,100782.80
2017-12-16T19:58:49.735Z,100790.48
2017-12-16T20:01:17.534Z,100787.00
2017-12-16T20:03:45.282Z,100795.75
2017-12-16T20:06:13.075Z,100792.17
2017-12-16T20:08:40.832Z,100801.47
2017-12-16T20:11:08.620Z,100805.11
2017-12-16T20:13:36.362Z,100810.84
2017-12-16T20:16:04.198Z,100795.52
2017-12-16T20:18:31.946Z,100808.61
2017-12-16T20:20:59.662Z,100811.06
2017-12-16T20:23:27.367Z,100811.21
2017-12-16T20:25:55.113Z,100812.31
2017-12-16T20:28:22.868Z,100813.78
2017-12-16T20:30:50.652Z,100826.75
2017-12-16T20:33:18.397Z,100823.23
2017-12-16T20:35:46.216Z,100824.38
2017-12-16T20:38:14.576Z,100827.07
2017-12-16T20:40:42.367Z,100820.16
2017-12-16T20:43:10.066Z,100829.38
2017-12-16T20:45:37.880Z,100836.03
2017-12-16T20:48:05.653Z,100824.70
2017-12-16T20:50:33.435Z,100832.24
2017-12-16T20:53:01.195Z,100833.50
2017-12-16T20:55:28.982Z,100832.81
2017-12-16T20:57:56.788Z,100838.69
2017-12-16T21:00:24.588Z,100830.91
2017-12-16T21:02:52.370Z,100829.92
2017-12-16T21:05:20.153Z,100840.80
2017-12-16T21:07:47.829Z,100836.00
2017-12-16T21:10:15.614Z,100838.89
2017-12-16T21:12:43.343Z,100843.28
2017-12-16T21:15:11.137Z,100843.75
2017-12-16T21:17:38.875Z,100853.48
2017-12-16T21:20:06.693Z,100849.36
2017-12-16T21:22:34.433Z,100854.66
2017-12-16T21:25:02.227Z,100854.94
2017-12-16T21:27:29.973Z,100850.40
2017-12-16T21:29:57.702Z,100854.94
2017-12-16T21:32:25.501Z,100856.51
2017-12-16T21:34:53.253Z,100855.11
2017-12-16T21:37:21.046Z,100867.50
2017-12-16T21:39:48.784Z,100869.37
2017-12-16T21:42:16.576Z,100872.23
2017-12-16T21:44:44.312Z,100874.52
2017-12-16T21:47:12.120Z,100890.09
2017-12-16T21:49:39.817Z,100888.91
2017-12-16T21:52:07.613Z,100905.02
2017-12-16T21:54:35.368Z,100897.66
2017-12-16T21:57:03.133Z,100904.17
2017-12-16T21:59:30.908Z,100901.08
2017-12-16T22:01:58.742Z,100910.27
2017-12-16T22:04:26.489Z,100902.94
2017-12-16T22:06:54.277Z,100906.44
2017-12-16T22:09:22.028Z,100904.80
2017-12-16T22:11:49.814Z,100906.89
2017-12-16T22:14:17.578Z,100912.38
2017-12-16T22:16:45.368Z,100922.73
2017-12-16T22:19:13.084Z,100916.50
2017-12-16T22:21:40.875Z,100920.59
2017-12-16T22:24:08.553Z,100929.09
2017-12-16T22:26:36.348Z,100926.15
2017-12-16T22:29:04.023Z,100929.05
2017-12-16T22:31:31.758Z,100925.19
2017-12-16T22:33:59.484Z,100923.05
2017-12-16T22:36:27.275Z,100925.08
2017-12-16T22:38:54.945Z,100927.17
2017-12-16T22:41:22.705Z,100928.54
2017-12-16T22:43:50.472Z,100931.67
2017-12-16T22:46:18.191Z,100929.19
2017-12-16T22:48:45.880Z,100940.41
2017-12-16T22:51:13.683Z,100942.59
2017-12-16T22:53:41.429Z,100937.12
2017-12-16T22:56:09.231Z,100945.18
2017-12-16T22:58:37.038Z,100946.97
2017-12-16T23:01:04.864Z,100954.70
2017-12-16T23:03:32.612Z,100947.98
2017-12-16T23:06:00.342Z,100947.27
2017-12-16T23:08:28.090Z,100950.25
2017-12-16T23:10:55.901Z,100953.23
2017-12-16T23:13:23.646Z,100954.13
2017-12-16T23:15:51.424Z,100961.27
2017-12-16T23:18:19.103Z,100960.38
2017-12-16T23:20:46.732Z,100965.19
2017-12-16T23:23:14.502Z,100961.40
2017-12-16T23:25:42.136Z,100961.05
2017-12-16T23:28:09.856Z,100967.78
2017-12-16T23:30:37.592Z,100967.43
2017-12-16T23:33:05.350Z,100970.44
2017-12-16T23:35:33.104Z,100975.55
2017-12-16T23:38:00.897Z,100982.72
2017-12-16T23:40:28.694Z,100984.36
2017-12-16T23:42:56.406Z,100978.47
2017-12-16T23:45:24.044Z,101000.09
2017-12-16T23:47:51.758Z,100997.22
2017-12-16T23:50:19.495Z,100997.10
2017-12-16T23:52:47.217Z,101002.33
2017-12-16T23:55:14.899Z,101002.09
2017-12-16T23:57:42.721Z,101005.28
